Boulmer, United Kingdom
Current Conditions -  °F | °C
As of 6:50 PM on Thursday 30 Oct 2014 (Local Time) from EGQM Reporting Station
Haze Haze  
Wind Chill: 55°   Ceiling: 11000
Heat Index: 55°   Visibility: 4mi
Dew Point: 55°   Wind: 8mph
Humidity: 100%   Direction: 170°S
Pressure: 29.91"   Gusts: NA
Location:  55.42°N, 1.58°W
Report Text: EGQM 301850Z AUTO 17007KT 6000 BR OVC110/// 13/13 Q1013
Loading
Personal Weather Stations






























Interactive Weather Map
Tropical Storm Tracking
New forecast layout! Learn more

10-Day Weather Forecast

Advertisements
Track Severe Weather on mobile